Porthleven, United Kingdom
Current Conditions -  °F | °C
As of 2:08 PM on Thursday 23 Oct 2014 (Local Time) from EGDR Reporting Station
Drizzle Drizzle  
Wind Chill: 57°   Ceiling: 100
Heat Index: 57°   Visibility: 0.25mi
Dew Point: 57°   Wind: 14mph
Humidity: 100%   Direction: 230°SW
Pressure: 30.09"   Gusts: NA
Location:  50.09°N, 5.32°W
Report Text: EGDR 231308Z 23012KT 0400 DZ SCT000 BKN001 OVC003 14/14 Q1019 RED NOSIG
Loading
Personal Weather Stations






























Interactive Weather Map New forecast layout! Learn more

10-Day Weather Forecast

Advertisements
Track Severe Weather on mobile